createdAt,value
2022-09-16T00:01:29.303Z,17.20
2022-09-16T00:04:00.070Z,17.20
2022-09-16T00:06:29.524Z,17.20
2022-09-16T00:09:03.701Z,17.10
2022-09-16T00:11:38.556Z,17.00
2022-09-16T00:14:08.297Z,17.00
2022-09-16T00:16:38.184Z,17.00
2022-09-16T00:19:07.763Z,17.00
2022-09-16T00:21:37.154Z,17.00
2022-09-16T00:24:06.801Z,17.00
2022-09-16T00:26:34.870Z,17.00
2022-09-16T00:29:06.420Z,16.90
2022-09-16T00:31:36.266Z,16.90
2022-09-16T00:34:03.546Z,16.90
2022-09-16T00:36:30.997Z,16.80
2022-09-16T00:39:00.454Z,16.80
2022-09-16T00:41:36.837Z,16.80
2022-09-16T00:44:06.789Z,16.80
2022-09-16T00:46:47.341Z,16.80
2022-09-16T00:49:26.018Z,16.70
2022-09-16T00:52:02.227Z,16.70
2022-09-16T00:54:30.854Z,16.70
2022-09-16T00:57:08.527Z,16.70
2022-09-16T00:59:41.588Z,16.70
2022-09-16T01:02:12.430Z,16.60
2022-09-16T01:04:58.679Z,16.60
2022-09-16T01:07:40.100Z,16.50
2022-09-16T01:10:08.055Z,16.50
2022-09-16T01:12:36.973Z,16.50
2022-09-16T01:15:06.689Z,16.40
2022-09-16T01:17:54.750Z,16.40
2022-09-16T01:20:43.281Z,16.40
2022-09-16T01:23:50.749Z,16.30
2022-09-16T01:26:23.054Z,16.40
2022-09-16T01:29:43.169Z,16.30
2022-09-16T01:32:42.095Z,16.40
2022-09-16T01:35:25.896Z,16.30
2022-09-16T01:38:02.520Z,16.20
2022-09-16T01:40:43.209Z,16.30
2022-09-16T01:43:54.648Z,16.10
2022-09-16T01:46:37.324Z,16.00
2022-09-16T01:49:28.303Z,16.00
2022-09-16T01:52:13.511Z,16.00
2022-09-16T01:54:50.636Z,15.90
2022-09-16T01:57:36.200Z,16.00
2022-09-16T02:00:11.359Z,16.00
2022-09-16T02:02:56.893Z,15.90
2022-09-16T02:05:53.568Z,15.90
2022-09-16T02:08:36.526Z,15.90
2022-09-16T02:11:12.012Z,16.00
2022-09-16T02:13:47.241Z,15.90
2022-09-16T02:16:20.493Z,15.90
2022-09-16T02:18:57.823Z,15.80
2022-09-16T02:21:29.558Z,15.90
2022-09-16T02:23:59.553Z,15.80
2022-09-16T02:26:33.798Z,15.70
2022-09-16T02:29:03.735Z,15.70
2022-09-16T02:31:36.530Z,15.70
2022-09-16T02:34:11.588Z,15.70
2022-09-16T02:36:41.730Z,15.60
2022-09-16T02:39:13.849Z,15.70
2022-09-16T02:42:06.304Z,15.70
2022-09-16T02:44:36.746Z,15.70
2022-09-16T02:47:15.896Z,15.70
2022-09-16T02:49:55.036Z,15.70
2022-09-16T02:52:34.324Z,15.70
2022-09-16T02:55:34.343Z,15.60
2022-09-16T02:58:07.512Z,15.70
2022-09-16T03:00:43.134Z,15.80
2022-09-16T03:03:10.537Z,15.70
2022-09-16T03:06:00.320Z,15.60
2022-09-16T03:08:27.652Z,15.60
2022-09-16T03:10:59.952Z,15.60
2022-09-16T03:13:55.126Z,15.60
2022-09-16T03:16:46.295Z,15.50
2022-09-16T03:19:16.295Z,15.50
2022-09-16T03:21:49.427Z,15.60
2022-09-16T03:24:34.701Z,15.70
2022-09-16T03:27:16.726Z,15.60
2022-09-16T03:29:52.193Z,15.50
2022-09-16T03:32:23.173Z,15.60
2022-09-16T03:35:10.674Z,15.60
2022-09-16T03:37:42.934Z,15.60
2022-09-16T03:40:16.368Z,15.60
2022-09-16T03:42:44.373Z,15.50
2022-09-16T03:45:16.605Z,15.60
2022-09-16T03:47:46.773Z,15.60
2022-09-16T03:50:14.401Z,15.60
2022-09-16T03:52:41.708Z,15.70
2022-09-16T03:55:10.847Z,15.70
2022-09-16T03:57:38.632Z,15.80
2022-09-16T04:00:08.180Z,15.70
2022-09-16T04:02:35.715Z,15.70
2022-09-16T04:05:03.744Z,15.70
2022-09-16T04:07:33.522Z,15.70
2022-09-16T04:10:01.675Z,15.60
2022-09-16T04:12:33.792Z,15.70
2022-09-16T04:15:05.701Z,15.80
2022-09-16T04:17:36.078Z,15.80
2022-09-16T04:20:04.418Z,15.80
2022-09-16T04:22:32.365Z,15.80
2022-09-16T04:25:02.127Z,15.80
2022-09-16T04:27:31.536Z,15.70
2022-09-16T04:29:58.886Z,15.80
2022-09-16T04:32:26.111Z,15.70
2022-09-16T04:34:53.348Z,15.80
2022-09-16T04:37:20.585Z,15.80
2022-09-16T04:39:48.449Z,15.80
2022-09-16T04:42:15.741Z,15.70
2022-09-16T04:44:45.288Z,15.60
2022-09-16T04:47:12.474Z,15.60
2022-09-16T04:49:39.672Z,15.60
2022-09-16T04:52:06.853Z,15.50
2022-09-16T04:54:34.121Z,15.50
2022-09-16T04:57:01.466Z,15.50
2022-09-16T04:59:28.692Z,15.50
2022-09-16T05:01:55.999Z,15.40
2022-09-16T05:04:23.446Z,15.30
2022-09-16T05:06:51.171Z,15.20
2022-09-16T05:09:23.225Z,15.10
2022-09-16T05:11:50.890Z,15.00
2022-09-16T05:14:21.191Z,15.00
2022-09-16T05:16:48.845Z,14.90
2022-09-16T05:19:18.372Z,14.90
2022-09-16T05:21:48.276Z,14.90
2022-09-16T05:24:15.486Z,14.80
2022-09-16T05:26:44.248Z,14.90
2022-09-16T05:29:15.725Z,14.80
2022-09-16T05:31:46.069Z,14.80
2022-09-16T05:34:21.946Z,14.70
2022-09-16T05:36:54.501Z,14.80
2022-09-16T05:39:24.307Z,14.80
2022-09-16T05:41:58.219Z,14.80
2022-09-16T05:44:28.835Z,14.90
2022-09-16T05:46:59.736Z,14.90
2022-09-16T05:49:29.803Z,14.90
2022-09-16T05:52:00.064Z,14.90
2022-09-16T05:54:27.985Z,14.80
2022-09-16T05:56:55.218Z,14.70
2022-09-16T05:59:24.060Z,14.70
2022-09-16T06:01:56.899Z,14.80
2022-09-16T06:04:24.214Z,14.70
2022-09-16T06:06:51.894Z,14.60
2022-09-16T06:09:22.342Z,14.60
2022-09-16T06:11:51.870Z,14.60
2022-09-16T06:14:23.081Z,14.60
2022-09-16T06:16:54.924Z,14.60
2022-09-16T06:19:22.745Z,14.50
2022-09-16T06:21:50.458Z,14.50
2022-09-16T06:24:19.157Z,14.50
2022-09-16T06:26:48.008Z,14.50
2022-09-16T06:29:17.219Z,14.60
2022-09-16T06:31:46.985Z,14.50
2022-09-16T06:34:18.711Z,14.60
2022-09-16T06:36:47.102Z,14.50
2022-09-16T06:39:16.781Z,14.50
2022-09-16T06:41:44.471Z,14.50
2022-09-16T06:44:16.589Z,14.60
2022-09-16T06:46:44.307Z,14.70
2022-09-16T06:49:12.982Z,14.80
2022-09-16T06:51:43.567Z,14.90
2022-09-16T06:54:11.163Z,14.90
2022-09-16T06:56:41.520Z,15.00
2022-09-16T06:59:11.090Z,15.10
2022-09-16T07:01:38.366Z,15.10
2022-09-16T07:04:16.156Z,15.10
2022-09-16T07:07:08.792Z,15.00
2022-09-16T07:09:32.434Z,15.10
2022-09-16T07:11:59.857Z,15.00
2022-09-16T07:14:28.089Z,15.00
2022-09-16T07:16:55.594Z,15.00
2022-09-16T07:19:22.966Z,14.90
2022-09-16T07:21:50.156Z,14.90
2022-09-16T07:24:17.751Z,15.00
2022-09-16T07:26:45.905Z,15.10
2022-09-16T07:29:16.551Z,15.10
2022-09-16T07:31:44.438Z,15.20
2022-09-16T07:34:13.477Z,15.20
2022-09-16T07:36:49.248Z,15.20
2022-09-16T07:39:18.768Z,15.20
2022-09-16T07:41:49.177Z,15.20
2022-09-16T07:44:23.390Z,15.30
2022-09-16T07:46:51.358Z,15.40
2022-09-16T07:49:19.657Z,15.60
2022-09-16T07:51:47.065Z,15.70
2022-09-16T07:54:16.787Z,15.80
2022-09-16T07:56:49.700Z,15.80
2022-09-16T07:59:19.799Z,15.80
2022-09-16T08:01:48.983Z,15.90
2022-09-16T08:04:17.738Z,16.00
2022-09-16T08:06:45.371Z,16.00
2022-09-16T08:12:04.760Z,16.00
2022-09-16T08:14:33.173Z,16.10
2022-09-16T08:17:01.257Z,16.00
2022-09-16T08:19:28.544Z,16.00
2022-09-16T08:21:58.806Z,16.10
2022-09-16T08:24:29.018Z,16.00
2022-09-16T08:29:29.732Z,16.30
2022-09-16T08:31:57.161Z,16.30
2022-09-16T08:34:25.150Z,16.40
2022-09-16T08:36:53.015Z,16.40
2022-09-16T08:39:23.251Z,16.50
2022-09-16T08:42:24.778Z,16.60
2022-09-16T08:45:29.055Z,16.70
2022-09-16T08:48:14.742Z,16.90
2022-09-16T08:50:47.273Z,16.90
2022-09-16T08:53:37.618Z,16.90
2022-09-16T08:56:11.483Z,16.80
2022-09-16T08:58:48.691Z,16.50
2022-09-16T09:01:42.067Z,16.20
2022-09-16T09:04:11.633Z,16.10
2022-09-16T09:06:50.174Z,16.00
2022-09-16T09:09:29.053Z,16.00
2022-09-16T09:12:21.808Z,16.00
2022-09-16T09:15:24.856Z,15.90
2022-09-16T09:18:22.594Z,15.90
2022-09-16T09:21:21.644Z,15.70
2022-09-16T09:24:15.711Z,15.70
2022-09-16T09:26:50.398Z,15.80
2022-09-16T09:29:42.084Z,15.60
2022-09-16T09:32:49.631Z,15.70
2022-09-16T09:35:47.994Z,15.90
2022-09-16T09:38:31.248Z,16.30
2022-09-16T09:41:06.618Z,16.50
2022-09-16T09:44:06.214Z,16.40
2022-09-16T09:46:45.060Z,16.20
2022-09-16T09:49:14.840Z,16.30
2022-09-16T09:52:10.533Z,16.60
2022-09-16T09:54:44.834Z,17.40
2022-09-16T09:57:39.707Z,17.70
2022-09-16T10:00:18.111Z,18.00
2022-09-16T10:02:49.920Z,18.10
2022-09-16T10:05:31.848Z,18.30
2022-09-16T10:08:21.144Z,18.70
2022-09-16T10:10:58.074Z,19.50
2022-09-16T10:13:27.217Z,20.40
2022-09-16T10:16:07.898Z,21.10
2022-09-16T10:18:36.118Z,21.00
2022-09-16T10:21:12.754Z,20.80
2022-09-16T10:23:40.689Z,20.80
2022-09-16T10:26:30.283Z,21.30
2022-09-16T10:29:19.590Z,21.70
2022-09-16T10:31:47.306Z,20.90
2022-09-16T10:34:34.616Z,20.20
2022-09-16T10:37:14.666Z,19.40
2022-09-16T10:39:56.330Z,19.00
2022-09-16T10:42:25.471Z,18.80
2022-09-16T10:45:01.859Z,19.00
2022-09-16T10:47:32.929Z,19.40
2022-09-16T10:50:04.671Z,20.80
2022-09-16T10:52:43.842Z,21.10
2022-09-16T10:55:21.605Z,20.60
2022-09-16T10:57:55.056Z,20.60
2022-09-16T11:00:23.815Z,20.70
2022-09-16T11:03:32.468Z,20.60
2022-09-16T11:06:30.898Z,20.60
2022-09-16T11:09:03.856Z,20.30
2022-09-16T11:11:58.361Z,19.90
2022-09-16T11:15:03.230Z,19.40
2022-09-16T11:17:58.819Z,19.10
2022-09-16T11:20:32.179Z,19.90
2022-09-16T11:23:14.614Z,20.10
2022-09-16T11:25:52.617Z,19.80
2022-09-16T11:28:34.711Z,19.40
2022-09-16T11:31:30.601Z,18.90
2022-09-16T11:34:11.986Z,18.50
2022-09-16T11:37:01.260Z,18.10
2022-09-16T11:39:40.486Z,17.70
2022-09-16T11:42:29.582Z,17.30
2022-09-16T11:45:27.377Z,17.20
2022-09-16T11:48:23.493Z,17.30
2022-09-16T11:51:20.098Z,17.40
2022-09-16T11:54:05.445Z,17.50
2022-09-16T11:56:46.279Z,17.40
2022-09-16T11:59:29.617Z,17.40
2022-09-16T12:01:59.801Z,17.50
2022-09-16T12:04:42.907Z,17.60
2022-09-16T12:07:38.678Z,17.70
2022-09-16T12:10:14.897Z,17.80
2022-09-16T12:12:53.568Z,17.80
2022-09-16T12:15:36.796Z,18.00
2022-09-16T12:18:13.357Z,18.10
2022-09-16T12:20:53.593Z,18.00
2022-09-16T12:23:34.181Z,18.20
2022-09-16T12:26:14.784Z,18.10
2022-09-16T12:28:58.447Z,18.10
2022-09-16T12:31:29.787Z,17.70
2022-09-16T12:34:03.362Z,17.60
2022-09-16T12:36:38.331Z,17.40
2022-09-16T12:39:09.969Z,17.00
2022-09-16T12:42:03.897Z,16.60
2022-09-16T12:44:40.631Z,16.20
2022-09-16T12:47:35.216Z,15.70
2022-09-16T12:50:27.240Z,15.40
2022-09-16T12:53:28.400Z,15.10
2022-09-16T12:56:20.053Z,15.10
2022-09-16T12:59:01.986Z,15.10
2022-09-16T13:01:48.231Z,15.20
2022-09-16T13:04:21.516Z,15.30
2022-09-16T13:06:52.426Z,15.50
2022-09-16T13:09:22.404Z,15.80
2022-09-16T13:12:39.599Z,16.10
2022-09-16T13:15:28.905Z,16.80
2022-09-16T13:18:07.121Z,17.90
2022-09-16T13:20:43.704Z,18.60
2022-09-16T13:23:19.429Z,19.40
2022-09-16T13:26:10.806Z,19.80
2022-09-16T13:28:44.070Z,20.20
2022-09-16T13:31:18.867Z,20.30
2022-09-16T13:34:16.249Z,20.10
2022-09-16T13:36:43.810Z,19.70
2022-09-16T13:39:27.986Z,19.30
2022-09-16T13:41:55.507Z,19.00
2022-09-16T13:44:30.536Z,18.90
2022-09-16T13:47:31.865Z,18.70
2022-09-16T13:50:21.334Z,18.40
2022-09-16T13:52:50.646Z,18.10
2022-09-16T13:55:25.259Z,17.90
2022-09-16T13:58:36.159Z,18.00
2022-09-16T14:01:36.939Z,18.00
2022-09-16T14:04:30.225Z,17.50
2022-09-16T14:07:00.843Z,17.00
2022-09-16T14:09:37.087Z,16.70
2022-09-16T14:12:19.063Z,16.60
2022-09-16T14:14:48.024Z,16.50
2022-09-16T14:17:24.471Z,16.70
2022-09-16T14:19:59.731Z,16.80
2022-09-16T14:22:28.058Z,17.00
2022-09-16T14:25:06.164Z,17.30
2022-09-16T14:27:47.424Z,17.40
2022-09-16T14:30:19.880Z,17.30
2022-09-16T14:32:49.262Z,17.20
2022-09-16T14:35:21.456Z,17.00
2022-09-16T14:37:57.395Z,16.80
2022-09-16T14:40:27.604Z,16.40
2022-09-16T14:43:00.542Z,16.20
2022-09-16T14:45:30.423Z,16.00
2022-09-16T14:48:01.620Z,15.80
2022-09-16T14:50:36.813Z,15.80
2022-09-16T14:53:26.920Z,15.70
2022-09-16T14:56:03.989Z,15.60
2022-09-16T14:58:33.733Z,15.50
2022-09-16T15:01:13.971Z,15.50
2022-09-16T15:03:44.532Z,15.40
2022-09-16T15:06:25.444Z,15.50
2022-09-16T15:09:18.658Z,15.50
2022-09-16T15:11:51.093Z,15.90
2022-09-16T15:14:19.078Z,16.10
2022-09-16T15:16:50.671Z,16.30
2022-09-16T15:19:25.211Z,16.50
2022-09-16T15:21:55.296Z,16.60
2022-09-16T15:24:31.956Z,16.90
2022-09-16T15:27:02.922Z,17.00
2022-09-16T15:29:34.018Z,16.90
2022-09-16T15:32:21.774Z,17.20
2022-09-16T15:35:00.323Z,17.20
2022-09-16T15:37:32.960Z,17.10
2022-09-16T15:40:21.908Z,16.90
2022-09-16T15:43:03.579Z,16.90
2022-09-16T15:45:31.292Z,16.80
2022-09-16T15:48:02.867Z,16.50
2022-09-16T15:50:40.829Z,16.40
2022-09-16T15:53:33.701Z,16.40
2022-09-16T15:56:08.322Z,16.40
2022-09-16T15:58:41.899Z,16.20
2022-09-16T16:01:44.260Z,16.30
2022-09-16T16:04:13.565Z,16.30
2022-09-16T16:06:58.663Z,16.30
2022-09-16T16:09:30.892Z,16.30
2022-09-16T16:12:16.436Z,16.00
2022-09-16T16:14:44.861Z,16.00
2022-09-16T16:17:20.941Z,15.80
2022-09-16T16:19:51.737Z,15.80
2022-09-16T16:22:21.782Z,15.90
2022-09-16T16:24:51.687Z,15.80
2022-09-16T16:27:23.908Z,15.80
2022-09-16T16:29:51.186Z,15.90
2022-09-16T16:32:18.592Z,16.00
2022-09-16T16:34:50.088Z,16.00
2022-09-16T16:37:44.489Z,15.90
2022-09-16T16:40:07.455Z,15.70
2022-09-16T16:42:35.754Z,15.70
2022-09-16T16:45:05.781Z,15.70
2022-09-16T16:47:37.697Z,15.70
2022-09-16T16:50:05.783Z,15.70
2022-09-16T16:52:36.033Z,15.50
2022-09-16T16:55:03.452Z,15.50
2022-09-16T16:57:31.265Z,15.30
2022-09-16T16:59:58.700Z,15.20
2022-09-16T17:02:26.419Z,15.10
2022-09-16T17:04:53.715Z,15.00
2022-09-16T17:07:27.253Z,14.90
2022-09-16T17:09:57.212Z,15.00
2022-09-16T17:12:27.431Z,14.90
2022-09-16T17:14:59.379Z,14.60
2022-09-16T17:17:31.391Z,14.60
2022-09-16T17:20:00.180Z,14.50
2022-09-16T17:22:29.851Z,14.40
2022-09-16T17:24:59.652Z,14.50
2022-09-16T17:27:27.864Z,14.40
2022-09-16T17:29:55.658Z,14.50
2022-09-16T17:32:22.917Z,14.60
2022-09-16T17:34:50.108Z,14.50
2022-09-16T17:37:19.822Z,14.50
2022-09-16T17:39:49.985Z,14.40
2022-09-16T17:42:20.532Z,14.40
2022-09-16T17:44:47.943Z,14.40
2022-09-16T17:47:15.172Z,14.40
2022-09-16T17:49:42.382Z,14.40
2022-09-16T17:52:12.096Z,14.40
2022-09-16T17:54:40.851Z,14.50
2022-09-16T17:57:08.107Z,14.50
2022-09-16T17:59:35.349Z,14.50
2022-09-16T18:02:02.614Z,14.50
2022-09-16T18:04:31.090Z,14.50
2022-09-16T18:07:00.700Z,14.40
2022-09-16T18:09:28.397Z,14.40
2022-09-16T18:11:58.463Z,14.40
2022-09-16T18:14:28.157Z,14.40
2022-09-16T18:16:56.034Z,14.40
2022-09-16T18:19:23.337Z,14.40
2022-09-16T18:21:52.709Z,14.50
2022-09-16T18:24:23.016Z,14.50
2022-09-16T18:26:52.784Z,14.30
2022-09-16T18:29:20.192Z,14.20
2022-09-16T18:31:49.470Z,14.00
2022-09-16T18:34:17.777Z,13.90
2022-09-16T18:36:47.164Z,13.80
2022-09-16T18:39:19.994Z,13.70
2022-09-16T18:41:49.399Z,13.70
2022-09-16T18:44:23.688Z,13.60
2022-09-16T18:46:52.151Z,13.60
2022-09-16T18:49:22.082Z,13.60
2022-09-16T18:51:53.643Z,13.60
2022-09-16T18:54:28.733Z,13.70
2022-09-16T18:57:02.966Z,13.80
2022-09-16T18:59:32.611Z,13.80
2022-09-16T19:02:02.688Z,13.80
2022-09-16T19:04:32.935Z,13.70
2022-09-16T19:07:08.091Z,13.70
2022-09-16T19:09:38.310Z,13.60
2022-09-16T19:12:08.969Z,13.60
2022-09-16T19:14:38.677Z,13.70
2022-09-16T19:17:06.522Z,13.70
2022-09-16T19:19:34.063Z,13.70
2022-09-16T19:22:05.578Z,13.70
2022-09-16T19:24:34.131Z,13.60
2022-09-16T19:27:04.070Z,13.60
2022-09-16T19:29:32.579Z,13.70
2022-09-16T19:31:59.953Z,13.60
2022-09-16T19:34:31.984Z,13.60
2022-09-16T19:37:02.261Z,13.60
2022-09-16T19:39:30.051Z,13.50
2022-09-16T19:41:57.999Z,13.50
2022-09-16T19:44:29.766Z,13.40
2022-09-16T19:46:57.508Z,13.40
2022-09-16T19:49:26.943Z,13.40
2022-09-16T19:51:56.306Z,13.40
2022-09-16T19:54:26.168Z,13.40
2022-09-16T19:56:54.340Z,13.30
2022-09-16T19:59:22.155Z,13.40
2022-09-16T20:01:49.813Z,13.30
2022-09-16T20:04:19.959Z,13.20
2022-09-16T20:06:48.644Z,13.20
2022-09-16T20:09:16.945Z,13.10
2022-09-16T20:11:46.801Z,13.10
2022-09-16T20:14:16.921Z,13.10
2022-09-16T20:16:46.349Z,13.10
2022-09-16T20:19:15.709Z,13.10
2022-09-16T20:21:45.612Z,13.10
2022-09-16T20:24:21.016Z,13.10
2022-09-16T20:26:49.404Z,13.10
2022-09-16T20:29:22.540Z,13.00
2022-09-16T20:31:55.162Z,13.00
2022-09-16T20:34:24.293Z,12.90
2022-09-16T20:36:54.371Z,12.80
2022-09-16T20:39:24.827Z,12.90
2022-09-16T20:41:52.849Z,12.90
2022-09-16T20:44:20.505Z,13.00
2022-09-16T20:46:49.066Z,13.00
2022-09-16T20:49:23.280Z,13.00
2022-09-16T20:51:51.495Z,13.00
2022-09-16T20:54:21.318Z,13.00
2022-09-16T20:56:51.649Z,13.00
2022-09-16T20:59:20.320Z,12.90
2022-09-16T21:01:49.220Z,12.90
2022-09-16T21:04:21.301Z,12.80
2022-09-16T21:06:48.714Z,12.90
2022-09-16T21:09:23.199Z,12.90
2022-09-16T21:11:51.426Z,12.80
2022-09-16T21:14:21.489Z,12.90
2022-09-16T21:16:49.430Z,12.80
2022-09-16T21:19:19.172Z,12.80
2022-09-16T21:21:48.553Z,12.70
2022-09-16T21:24:16.393Z,12.60
2022-09-16T21:26:44.966Z,12.60
2022-09-16T21:29:20.825Z,12.60
2022-09-16T21:31:51.666Z,12.50
2022-09-16T21:34:21.095Z,12.60
2022-09-16T21:36:49.750Z,12.50
2022-09-16T21:39:19.958Z,12.60
2022-09-16T21:41:50.093Z,12.60
2022-09-16T21:44:18.456Z,12.60
2022-09-16T21:46:46.565Z,12.60
2022-09-16T21:49:25.823Z,12.60
2022-09-16T21:51:57.328Z,12.70
2022-09-16T21:54:25.940Z,12.70
2022-09-16T21:56:53.284Z,12.70
2022-09-16T21:59:23.612Z,12.80
2022-09-16T22:01:51.742Z,12.80
2022-09-16T22:04:21.852Z,12.80
2022-09-16T22:06:54.773Z,12.80
2022-09-16T22:09:22.211Z,12.80
2022-09-16T22:11:49.743Z,12.90
2022-09-16T22:14:19.664Z,12.90
2022-09-16T22:16:46.925Z,12.90
2022-09-16T22:19:18.533Z,12.90
2022-09-16T22:21:48.823Z,12.80
2022-09-16T22:24:19.973Z,12.90
2022-09-16T22:26:51.363Z,13.10
2022-09-16T22:29:19.389Z,13.20
2022-09-16T22:31:49.332Z,13.30
2022-09-16T22:34:16.693Z,13.40
2022-09-16T22:36:44.117Z,13.40
2022-09-16T22:39:19.814Z,13.50
2022-09-16T22:41:47.780Z,13.50
2022-09-16T22:44:15.189Z,13.50
2022-09-16T22:46:45.133Z,13.60
2022-09-16T22:49:13.365Z,13.40
2022-09-16T22:51:43.881Z,13.40
2022-09-16T22:54:13.114Z,13.30
2022-09-16T22:56:40.971Z,13.30
2022-09-16T22:59:10.590Z,13.30
2022-09-16T23:01:39.752Z,13.30
2022-09-16T23:04:08.915Z,13.20
2022-09-16T23:06:37.569Z,13.10
2022-09-16T23:09:06.270Z,13.10
2022-09-16T23:11:35.512Z,13.10
2022-09-16T23:14:05.267Z,13.10
2022-09-16T23:16:36.253Z,13.10
2022-09-16T23:19:06.702Z,13.00
2022-09-16T23:21:34.058Z,13.00
2022-09-16T23:24:03.261Z,12.90
2022-09-16T23:26:35.923Z,13.00
2022-09-16T23:29:07.683Z,12.90
2022-09-16T23:31:40.291Z,12.80
2022-09-16T23:34:19.888Z,12.70
2022-09-16T23:36:48.365Z,12.70
2022-09-16T23:39:16.869Z,12.60
2022-09-16T23:41:45.109Z,12.60
2022-09-16T23:44:14.818Z,12.60
2022-09-16T23:46:45.341Z,12.60
2022-09-16T23:49:17.162Z,12.60
2022-09-16T23:51:49.633Z,12.50
2022-09-16T23:54:19.464Z,12.60
2022-09-16T23:56:46.900Z,12.50
2022-09-16T23:59:14.615Z,12.50
